• Join FlightAware (Why Join?)
  • Login
  • US Flag 
06:41PM EST


 

Airport Tracker/Info


-or-


 

Live Flight TrackerFlight Track Log ✈ EJA829P ✈ 09-Jul-2013 ✈ KTEB - KROA

Flight Track Log - Related Links

Times and Time Zones

All times are in EDT time to prevent confusion due to time zone crossing. See the EJA829P flight status page for this flight to view local times or setup timezone preferences in your user account.

Time Position Orientation Groundspeed Altitude Reporting Facility
EDT Latitude Longitude Course Direction KTS MPH feet Rate Location/Type
08:56AM 40.8167 -74.1167 252° West 182 209 1,900  Level New York TRACON
08:57AM 40.8167 -74.1833 270° West 201 231 4,400 2,520 Climbing New York TRACON
08:58AM 40.8000 -74.2833 258° West 276 318 7,000 2,640 Climbing New York TRACON
09:00AM 40.7739 -74.4869 260° West 291 335 13,000 2,400 Climbing New York Center
09:01AM 40.6545 -74.6823 252° West  Level FlightAware Approximate
09:01AM 40.7847 -74.6106 277° West 296 341 14,800  Level New York Center
09:02AM 40.7647 -74.7108 255° West 296 341 16,000 960 Climbing New York Center
09:03AM 40.7011 -74.8031 228° Southwest 314 361 16,800 600 Climbing New York Center
09:04AM 40.6481 -74.8931 232° Southwest 334 384 17,200 1,080 Climbing New York Center
09:05AM 40.5842 -74.9903 229° Southwest 354 407 19,000 1,860 Climbing New York Center
09:06AM 40.5222 -75.0903 231° Southwest 354 407 21,000 1,980 Climbing New York Center
09:07AM 40.4600 -75.1900 231° Southwest 359 413 23,000 1,920 Climbing New York Center
09:08AM 40.3981 -75.2894 231° Southwest 359 413 24,900 1,680 Climbing New York Center
09:09AM 40.3336 -75.3914 230° Southwest 364 419 26,400 1,620 Climbing New York Center
09:10AM 40.2603 -75.5064 230° Southwest 371 427 28,200 1,620 Climbing New York Center
09:11AM 40.1994 -75.6164 234° Southwest 371 427 29,700 1,500 Climbing New York Center
09:12AM 40.1406 -75.7289 236° Southwest 376 433 31,200 1,440 Climbing New York Center
09:13AM 40.0858 -75.8417 238° Southwest 376 433 32,700 1,320 Climbing New York Center
09:14AM 40.0267 -75.9539 235° Southwest 382 440 33,900 480 Climbing New York Center
09:15AM 39.9269 -76.1517 237° Southwest 401 461 34,000  Climbing Washington Center
09:16AM 39.8597 -76.2781 235° Southwest 420 483 34,000  Level Washington Center
09:17AM 39.7942 -76.4069 237° Southwest 420 483 34,000  Level Washington Center
09:18AM 39.7267 -76.5303 235° Southwest 425 489 34,000  Level Washington Center
09:19AM 39.6611 -76.6617 237° Southwest 425 489 34,000  Level Washington Center
09:20AM 39.5931 -76.7872 235° Southwest 430 495 34,000  Level Washington Center
09:21AM 39.5250 -76.9153 235° Southwest 435 501 34,000  Level Washington Center
09:22AM 39.4444 -77.0347 229° Southwest 435 501 34,000 -360 Level Washington Center
09:23AM 39.3475 -77.1347 219° Southwest 435 501 33,300 -840 Descending Washington Center
09:24AM 39.2544 -77.2319 219° Southwest 440 506 32,300 -1,020 Descending Washington Center
09:25AM 39.1614 -77.3289 219° Southwest 440 506 31,300 -1,020 Descending Washington Center
09:26AM 39.0703 -77.4231 219° Southwest 435 501 30,300 -1,020 Descending Washington Center
09:27AM 38.9792 -77.5169 219° Southwest 430 495 29,300 -1,020 Descending Washington Center
09:28AM 38.8944 -77.6081 220° Southwest 435 501 28,400 -1,020 Descending Washington Center
09:29AM 38.7819 -77.7167 217° Southwest 447 514 27,300 -1,020 Descending Washington Center
09:30AM 38.6992 -77.8047 220° Southwest 447 514 26,400 -720 Descending Washington Center
09:31AM 38.6117 -77.9111 224° Southwest 447 514 26,000 -240 Descending Washington Center
09:32AM 38.5425 -78.0339 234° Southwest 437 503 26,000 -540 Level Washington Center
09:33AM 38.4711 -78.1533 233° Southwest 437 503 25,000 -1,200 Descending Washington Center
09:34AM 38.4019 -78.2728 234° Southwest 432 497 23,700 -2,640 Descending Washington Center
09:35AM 38.3389 -78.3792 233° Southwest 411 473 19,800 -2,820 Descending Washington Center
09:36AM 38.2781 -78.4828 233° Southwest 388 447 18,000 -1,560 Descending Washington Center
09:37AM 38.2172 -78.5886 234° Southwest 375 432 16,700 -1,440 Descending Washington Center
09:38AM 38.1583 -78.6894 233° Southwest 375 432 15,200 -1,680 Descending Washington Center
09:39AM 38.0953 -78.7922 232° Southwest 354 407 13,500 -1,620 Descending Washington Center
09:40AM 38.0383 -78.8847 232° Southwest 349 402 12,000 -780 Descending Washington Center
09:41AM 37.9836 -78.9772 233° Southwest 338 389 12,000  Level Washington Center
09:42AM 37.9269 -79.0694 232° Southwest 338 389 12,000 -60 Level Washington Center
09:43AM 37.8767 -79.1486 231° Southwest 338 389 11,900  Descending Washington Center
09:44AM 37.8197 -79.2381 231° Southwest 338 389 12,100  Climbing Washington Center
09:45AM 37.7583 -79.3297 230° Southwest 338 389 11,900 -600 Descending Washington Center
09:46AM 37.6928 -79.4236 229° Southwest 325 374 10,900 -960 Descending Washington Center
09:47AM 37.6358 -79.5097 230° Southwest 320 368 10,000 -780 Descending Washington Center
09:48AM 37.5808 -79.5961 231° Southwest 320 368 9,400 -780 Descending Washington Center
09:49AM 37.5367 -79.6669 232° Southwest 295 339 8,500 -1,560 Descending Washington Center
09:50AM 37.4986 -79.7436 238° Southwest 267 307 6,400 -1,980 Descending Washington Center
09:51AM 37.4531 -79.7961 222° Southwest 250 288 4,600 -1,620 Descending Washington Center
09:52AM 37.4069 -79.8614 228° Southwest 243 280 3,200 -1,080 Descending Washington Center
09:53AM 37.3717 -79.9117 229° Southwest 221 254 2,500 -780 Descending Washington Center
09:54AM 37.3517 -79.9419 230° Southwest 164 189 1,700 -840 Descending Washington Center